createdAt,value
2022-09-28T00:02:49.859Z,76.44
2022-09-28T00:07:56.771Z,76.55
2022-09-28T00:13:01.531Z,76.70
2022-09-28T00:18:04.538Z,76.77
2022-09-28T00:23:07.388Z,76.69
2022-09-28T00:28:10.496Z,76.62
2022-09-28T00:33:13.370Z,76.46
2022-09-28T00:38:17.090Z,76.23
2022-09-28T00:43:21.055Z,76.51
2022-09-28T00:48:27.094Z,76.60
2022-09-28T00:53:35.246Z,76.49
2022-09-28T00:58:50.229Z,76.30
2022-09-28T01:03:53.772Z,76.03
2022-09-28T01:08:59.173Z,76.50
2022-09-28T01:14:03.463Z,76.61
2022-09-28T01:19:34.883Z,76.61
2022-09-28T01:24:46.756Z,76.49
2022-09-28T01:30:05.964Z,76.37
2022-09-28T01:35:36.626Z,76.14
2022-09-28T01:40:41.536Z,76.06
2022-09-28T01:45:52.586Z,76.10
2022-09-28T01:51:02.155Z,75.96
2022-09-28T01:56:13.453Z,76.20
2022-09-28T02:01:33.529Z,76.30
2022-09-28T02:06:47.082Z,76.35
2022-09-28T02:11:59.111Z,76.42
2022-09-28T02:17:02.120Z,76.49
2022-09-28T02:22:37.482Z,76.65
2022-09-28T02:28:05.338Z,76.99
2022-09-28T02:33:20.724Z,76.78
2022-09-28T02:38:23.553Z,77.28
2022-09-28T02:43:53.124Z,77.20
2022-09-28T02:49:39.450Z,77.57
2022-09-28T02:54:57.338Z,77.59
2022-09-28T03:00:08.823Z,77.25
2022-09-28T03:05:15.841Z,77.51
2022-09-28T03:10:59.952Z,77.37
2022-09-28T03:16:08.849Z,77.25
2022-09-28T03:21:13.719Z,77.25
2022-09-28T03:26:16.988Z,77.19
2022-09-28T03:31:19.913Z,77.06
2022-09-28T03:36:22.866Z,76.62
2022-09-28T03:41:27.930Z,76.19
2022-09-28T03:46:30.824Z,75.93
2022-09-28T03:51:33.696Z,76.01
2022-09-28T03:56:36.503Z,75.78
2022-09-28T04:01:39.454Z,75.46
2022-09-28T04:06:42.609Z,75.31
2022-09-28T04:12:02.715Z,75.34
2022-09-28T04:17:07.337Z,75.25
2022-09-28T04:22:10.495Z,75.24
2022-09-28T04:27:32.196Z,75.43
2022-09-28T04:32:35.105Z,75.01
2022-09-28T04:37:37.958Z,74.82
2022-09-28T04:42:40.758Z,74.78
2022-09-28T04:47:43.609Z,74.38
2022-09-28T04:52:46.455Z,74.42
2022-09-28T04:57:49.452Z,74.50
2022-09-28T05:02:54.278Z,74.24
2022-09-28T05:08:00.269Z,74.06
2022-09-28T05:13:03.194Z,74.03
2022-09-28T05:18:07.020Z,73.84
2022-09-28T05:23:12.497Z,74.20
2022-09-28T05:28:29.036Z,74.17
2022-09-28T05:33:33.405Z,74.37
2022-09-28T05:38:36.434Z,74.33
2022-09-28T05:43:39.361Z,73.90
2022-09-28T05:48:42.261Z,73.95
2022-09-28T05:53:45.308Z,73.66
2022-09-28T05:58:48.260Z,73.81
2022-09-28T06:03:51.138Z,73.61
2022-09-28T06:08:54.012Z,73.27
2022-09-28T06:13:56.915Z,72.95
2022-09-28T06:18:59.894Z,72.82
2022-09-28T06:24:04.119Z,72.75
2022-09-28T06:29:07.191Z,72.60
2022-09-28T06:34:11.741Z,72.61
2022-09-28T06:39:14.641Z,72.54
2022-09-28T06:44:17.623Z,72.48
2022-09-28T06:49:20.777Z,72.50
2022-09-28T06:54:25.878Z,72.21
2022-09-28T06:59:29.987Z,72.06
2022-09-28T07:04:32.906Z,71.83
2022-09-28T07:09:39.741Z,71.34
2022-09-28T07:14:48.288Z,71.20
2022-09-28T07:19:52.813Z,71.05
2022-09-28T07:24:55.762Z,70.95
2022-09-28T07:29:59.092Z,70.91
2022-09-28T07:35:05.154Z,70.59
2022-09-28T07:40:28.001Z,70.60
2022-09-28T07:45:34.255Z,70.67
2022-09-28T07:50:37.232Z,70.58
2022-09-28T07:55:40.088Z,70.91
2022-09-28T08:00:45.549Z,70.68
2022-09-28T08:05:48.581Z,70.26
2022-09-28T08:10:53.277Z,70.23
2022-09-28T08:16:01.540Z,69.93
2022-09-28T08:21:25.290Z,69.26
2022-09-28T08:26:29.244Z,68.24
2022-09-28T08:31:36.161Z,68.35
2022-09-28T08:36:39.567Z,68.48
2022-09-28T08:41:51.684Z,68.45
2022-09-28T08:47:04.653Z,68.76
2022-09-28T08:52:17.371Z,68.58
2022-09-28T08:57:31.106Z,68.21
2022-09-28T09:02:39.572Z,67.76
2022-09-28T09:08:31.000Z,67.63
2022-09-28T09:13:45.911Z,67.40
2022-09-28T09:18:59.391Z,67.05
2022-09-28T09:24:24.874Z,67.02
2022-09-28T09:29:47.887Z,66.82
2022-09-28T09:35:21.776Z,66.52
2022-09-28T09:41:20.680Z,66.95
2022-09-28T09:46:30.850Z,66.31
2022-09-28T09:51:48.389Z,66.03
2022-09-28T09:57:09.882Z,66.56
2022-09-28T10:02:23.956Z,65.88
2022-09-28T10:07:51.073Z,66.45
2022-09-28T10:12:54.687Z,66.00
2022-09-28T10:18:03.129Z,64.57
2022-09-28T10:23:16.227Z,64.47
2022-09-28T10:28:35.684Z,64.29
2022-09-28T10:33:39.569Z,64.93
2022-09-28T10:38:48.371Z,65.47
2022-09-28T10:44:11.046Z,64.91
2022-09-28T10:49:18.037Z,64.80
2022-09-28T10:54:32.113Z,64.30
2022-09-28T10:59:40.768Z,63.79
2022-09-28T11:04:52.311Z,64.69
2022-09-28T11:09:55.515Z,64.38
2022-09-28T11:15:07.981Z,64.93
2022-09-28T11:20:28.489Z,64.76
2022-09-28T11:25:32.479Z,64.66
2022-09-28T11:30:49.917Z,64.88
2022-09-28T11:36:14.553Z,64.35
2022-09-28T11:41:38.660Z,63.82
2022-09-28T11:47:22.173Z,64.54
2022-09-28T11:52:35.129Z,64.08
2022-09-28T11:57:45.904Z,63.68
2022-09-28T12:03:15.806Z,63.13
2022-09-28T12:08:29.214Z,63.65
2022-09-28T12:13:39.094Z,63.33
2022-09-28T12:24:21.838Z,63.00
2022-09-28T12:29:43.608Z,63.44
2022-09-28T12:34:46.499Z,62.48
2022-09-28T12:40:13.671Z,61.36
2022-09-28T12:45:28.605Z,60.09
2022-09-28T12:51:09.869Z,58.98
2022-09-28T12:56:54.001Z,58.79
2022-09-28T13:02:56.834Z,57.09
2022-09-28T13:08:18.145Z,58.95
2022-09-28T13:13:37.485Z,59.39
2022-09-28T13:19:14.856Z,59.44
2022-09-28T13:24:35.516Z,58.90
2022-09-28T13:34:50.633Z,59.31
2022-09-28T13:39:59.070Z,57.11
2022-09-28T13:45:20.331Z,57.44
2022-09-28T13:50:54.977Z,57.70
2022-09-28T13:56:19.037Z,57.49
2022-09-28T14:01:31.972Z,57.71
2022-09-28T14:06:34.988Z,57.03
2022-09-28T14:11:37.821Z,57.67
2022-09-28T14:16:42.680Z,57.83
2022-09-28T14:21:59.480Z,58.47
2022-09-28T14:27:17.505Z,59.54
2022-09-28T14:32:33.192Z,58.58
2022-09-28T14:38:00.570Z,56.86
2022-09-28T14:43:27.394Z,56.98
2022-09-28T14:49:06.148Z,59.00
2022-09-28T14:54:11.867Z,60.66
2022-09-28T14:59:19.669Z,58.62
2022-09-28T15:04:28.186Z,58.71
2022-09-28T15:09:35.211Z,59.75
2022-09-28T15:15:08.611Z,60.89
2022-09-28T15:20:38.208Z,61.32
2022-09-28T15:25:41.084Z,61.77
2022-09-28T15:30:44.055Z,62.18
2022-09-28T15:36:04.885Z,62.48
2022-09-28T15:41:10.109Z,62.64
2022-09-28T15:46:19.214Z,62.75
2022-09-28T15:51:24.687Z,62.24
2022-09-28T15:56:28.884Z,62.96
2022-09-28T16:01:37.001Z,63.76
2022-09-28T16:06:41.466Z,63.93
2022-09-28T16:11:44.375Z,64.39
2022-09-28T16:16:50.526Z,64.60
2022-09-28T16:21:56.913Z,64.82
2022-09-28T16:27:03.628Z,65.11
2022-09-28T16:32:25.373Z,65.56
2022-09-28T16:37:32.966Z,64.25
2022-09-28T16:42:37.797Z,65.00
2022-09-28T16:47:40.705Z,65.22
2022-09-28T16:53:02.488Z,66.08
2022-09-28T16:58:06.776Z,66.62
2022-09-28T17:03:21.268Z,67.05
2022-09-28T17:08:25.718Z,67.16
2022-09-28T17:13:33.298Z,67.41
2022-09-28T17:18:39.300Z,66.74
2022-09-28T17:23:44.647Z,67.23
2022-09-28T17:28:47.568Z,66.91
2022-09-28T17:33:50.485Z,67.44
2022-09-28T17:38:53.449Z,67.57
2022-09-28T17:43:56.601Z,66.79
2022-09-28T17:49:03.099Z,66.54
2022-09-28T17:54:08.278Z,66.68
2022-09-28T17:59:16.501Z,66.66
2022-09-28T18:04:47.306Z,66.47
2022-09-28T18:09:42.380Z,66.75
2022-09-28T18:14:45.205Z,67.37
2022-09-28T18:19:48.005Z,67.84
2022-09-28T18:24:50.843Z,69.30
2022-09-28T18:29:53.894Z,70.30
2022-09-28T18:34:56.683Z,70.86
2022-09-28T18:39:59.542Z,70.81
2022-09-28T18:45:05.942Z,70.60
2022-09-28T18:50:11.909Z,70.59
2022-09-28T18:55:14.755Z,70.87
2022-09-28T19:00:17.643Z,71.02
2022-09-28T19:05:20.522Z,71.67
2022-09-28T19:10:23.465Z,72.03
2022-09-28T19:15:26.471Z,72.62
2022-09-28T19:20:29.469Z,72.48
2022-09-28T19:25:32.380Z,72.34
2022-09-28T19:30:35.533Z,72.34
2022-09-28T19:35:39.877Z,72.29
2022-09-28T19:40:42.867Z,72.47
2022-09-28T19:45:45.731Z,72.57
2022-09-28T19:50:58.694Z,72.41
2022-09-28T19:56:05.086Z,72.53
2022-09-28T20:01:08.809Z,72.57
2022-09-28T20:06:16.452Z,72.66
2022-09-28T20:11:21.517Z,72.88
2022-09-28T20:16:24.778Z,72.88
2022-09-28T20:21:28.110Z,73.14
2022-09-28T20:26:37.424Z,73.49
2022-09-28T20:31:40.729Z,73.30
2022-09-28T20:36:44.792Z,73.28
2022-09-28T20:41:49.150Z,73.70
2022-09-28T20:46:52.089Z,73.78
2022-09-28T20:51:54.973Z,73.77
2022-09-28T20:56:57.821Z,73.89
2022-09-28T21:02:00.764Z,73.59
2022-09-28T21:07:03.757Z,73.64
2022-09-28T21:12:07.201Z,74.01
2022-09-28T21:17:10.529Z,74.45
2022-09-28T21:22:13.466Z,75.08
2022-09-28T21:27:16.654Z,75.30
2022-09-28T21:32:19.553Z,75.61
2022-09-28T21:37:22.445Z,76.29
2022-09-28T21:42:25.343Z,76.65
2022-09-28T21:47:28.204Z,77.07
2022-09-28T21:52:31.378Z,77.52
2022-09-28T21:57:34.223Z,77.20
2022-09-28T22:02:39.159Z,76.95
2022-09-28T22:07:43.177Z,76.73
2022-09-28T22:12:46.094Z,76.55
2022-09-28T22:17:48.950Z,76.74
2022-09-28T22:22:51.893Z,76.85
2022-09-28T22:27:54.775Z,77.49
2022-09-28T22:32:57.646Z,76.86
2022-09-28T22:38:00.483Z,76.45
2022-09-28T22:43:03.373Z,76.60
2022-09-28T22:48:07.269Z,76.86
2022-09-28T22:53:10.105Z,77.00
2022-09-28T22:58:13.585Z,77.06
2022-09-28T23:03:17.911Z,76.87
2022-09-28T23:08:21.908Z,77.04
2022-09-28T23:13:25.253Z,77.13
2022-09-28T23:18:32.023Z,77.14
2022-09-28T23:23:34.901Z,77.03
2022-09-28T23:28:37.921Z,77.19
2022-09-28T23:33:41.355Z,76.96
2022-09-28T23:38:44.363Z,76.54
2022-09-28T23:43:47.411Z,76.17
2022-09-28T23:48:50.726Z,75.93
2022-09-28T23:53:53.713Z,75.63
2022-09-28T23:58:56.643Z,75.39
